Time;durP1;ratioP1;P1;durP2;ratioP2;P2;SDS_P1;SDS_P2;PMS_P1;PMS_P2;Temp;Humidity;BMP_temperature;BMP_pressure;BME280_temperature;BME280_humidity;BME280_pressure;Samples;Min_cycle;Max_cycle;Signal;HPM_P1;HPM_P2
2023/05/14 00:00:40;;;;;;;12.18;3.67;;;;;;;13.89;100.00;99518.66;5159220;27;20047;-56
2023/05/14 00:03:06;;;;;;;12.55;4.43;;;;;;;13.74;100.00;99500.41;5159044;27;20265;-57
2023/05/14 00:05:32;;;;;;;10.52;3.75;;;;;;;13.78;100.00;99530.75;5158959;27;20047;-54
2023/05/14 00:07:58;;;;;;;19.08;3.95;;;;;;;13.78;100.00;99520.50;5159956;27;20195;-53
2023/05/14 00:10:26;;;;;;;5.50;4.05;;;;;;;13.82;100.00;99520.53;5158517;27;20137;-53
2023/05/14 00:12:52;;;;;;;7.10;3.88;;;;;;;13.86;100.00;99521.38;5159207;27;20057;-55
2023/05/14 00:15:18;;;;;;;7.35;3.55;;;;;;;13.84;100.00;99527.25;5159110;27;20097;-61
2023/05/14 00:17:45;;;;;;;6.32;3.80;;;;;;;13.95;100.00;99545.88;5159272;27;20047;-62
2023/05/14 00:20:11;;;;;;;7.82;4.03;;;;;;;13.96;100.00;99539.19;5158810;27;20043;-60
2023/05/14 00:22:38;;;;;;;5.50;4.05;;;;;;;13.73;100.00;99493.31;5158926;27;20133;-56
2023/05/14 00:25:05;;;;;;;17.17;3.60;;;;;;;13.86;100.00;99524.13;5158747;27;20362;-55
2023/05/14 00:27:31;;;;;;;6.90;3.70;;;;;;;13.74;100.00;99505.91;5158785;27;20050;-57
2023/05/14 00:29:57;;;;;;;8.50;4.50;;;;;;;13.81;100.00;99522.50;5158668;27;20055;-52
2023/05/14 00:32:23;;;;;;;6.97;4.10;;;;;;;13.84;100.00;99529.22;5158607;27;20054;-53
2023/05/14 00:34:50;;;;;;;9.68;4.40;;;;;;;13.81;100.00;99513.44;5158340;27;20317;-57
2023/05/14 00:37:15;;;;;;;7.00;4.10;;;;;;;13.71;100.00;99497.59;5157337;27;20057;-55
2023/05/14 00:39:41;;;;;;;7.68;4.38;;;;;;;13.61;100.00;99512.84;5158569;27;20043;-57
2023/05/14 00:42:07;;;;;;;4.80;4.05;;;;;;;13.50;100.00;99490.69;5158887;27;20051;-59
2023/05/14 00:44:33;;;;;;;8.02;4.43;;;;;;;13.42;100.00;99459.50;5158606;27;20051;-62
2023/05/14 00:47:00;;;;;;;7.53;4.03;;;;;;;13.05;100.00;99431.91;5158393;27;20050;-56
2023/05/14 00:49:27;;;;;;;8.45;4.40;;;;;;;13.17;100.00;99436.41;5158531;27;20537;-59
2023/05/14 00:51:54;;;;;;;5.15;3.78;;;;;;;12.95;100.00;99414.09;5158331;27;20416;-57
2023/05/14 00:54:20;;;;;;;5.47;3.72;;;;;;;12.92;100.00;99397.56;5158342;27;20407;-60
2023/05/14 00:56:46;;;;;;;9.27;3.88;;;;;;;12.87;100.00;99404.19;5158319;27;20154;-55
2023/05/14 00:59:13;;;;;;;6.28;3.47;;;;;;;12.84;100.00;99423.41;5158305;27;20486;-59
2023/05/14 01:01:39;;;;;;;9.23;3.88;;;;;;;12.83;100.00;99433.63;5158151;27;20196;-56
2023/05/14 01:04:06;;;;;;;6.32;3.97;;;;;;;12.80;100.00;99426.13;5156920;27;20141;-56
2023/05/14 01:06:42;;;;;;;8.68;4.15;;;;;;;12.74;100.00;99419.34;5156829;27;20055;-56
2023/05/14 01:09:16;;;;;;;7.32;3.72;;;;;;;12.69;100.00;99414.16;5142545;27;20395;-61
2023/05/14 01:11:54;;;;;;;7.10;4.13;;;;;;;12.72;100.00;99414.22;5158272;27;20050;-60
2023/05/14 01:14:27;;;;;;;10.57;3.75;;;;;;;12.54;100.00;99402.19;5158274;27;20288;-56
2023/05/14 01:16:58;;;;;;;5.70;3.73;;;;;;;12.58;100.00;99389.28;5158084;27;20137;-53
2023/05/14 01:19:34;;;;;;;5.88;3.90;;;;;;;12.45;100.00;99379.66;5158008;27;20047;-59
2023/05/14 01:22:00;;;;;;;4.97;3.53;;;;;;;12.27;100.00;99331.91;5157881;27;20305;-56
2023/05/14 01:24:26;;;;;;;9.93;3.70;;;;;;;12.23;100.00;99318.91;5156650;27;20114;-56
2023/05/14 01:26:55;;;;;;;9.63;4.72;;;;;;;12.18;100.00;99319.22;5157071;27;20058;-55
2023/05/14 01:29:22;;;;;;;5.60;3.85;;;;;;;12.20;100.00;99327.09;5157771;27;20043;-61
2023/05/14 01:31:50;;;;;;;6.97;4.10;;;;;;;12.14;100.00;99328.59;5157836;27;20076;-54
2023/05/14 01:34:20;;;;;;;7.95;3.70;;;;;;;12.10;100.00;99311.25;5157885;27;20050;-61
2023/05/14 01:36:47;;;;;;;14.63;5.25;;;;;;;12.03;100.00;99314.69;5157732;27;20053;-62
2023/05/14 01:39:14;;;;;;;6.90;4.40;;;;;;;11.98;100.00;99296.56;5157726;27;20087;-59
2023/05/14 01:41:41;;;;;;;5.28;4.25;;;;;;;11.87;100.00;99257.16;5157508;27;20057;-56
2023/05/14 01:44:08;;;;;;;7.97;4.15;;;;;;;11.78;100.00;99268.38;5157530;27;20055;-61
2023/05/14 01:46:34;;;;;;;6.68;4.13;;;;;;;11.88;100.00;99288.19;5157441;27;20099;-55
2023/05/14 01:49:00;;;;;;;7.25;4.20;;;;;;;11.90;100.00;99283.91;5157348;27;20137;-61
2023/05/14 01:51:26;;;;;;;11.23;4.53;;;;;;;11.74;100.00;99253.81;5156407;27;20114;-59
2023/05/14 01:53:52;;;;;;;5.50;4.40;;;;;;;11.76;100.00;99251.50;5156462;27;20416;-54
2023/05/14 01:56:20;;;;;;;7.93;4.10;;;;;;;11.86;100.00;99271.25;5157544;27;20061;-52
2023/05/14 01:58:46;;;;;;;6.60;4.25;;;;;;;11.73;100.00;99251.44;5157461;27;20362;-53
2023/05/14 02:01:12;;;;;;;7.55;3.92;;;;;;;11.75;100.00;99252.63;5157268;27;20102;-56
2023/05/14 02:03:38;;;;;;;5.65;3.90;;;;;;;11.70;100.00;99291.41;5157272;27;20094;-59
2023/05/14 02:06:04;;;;;;;6.13;4.13;;;;;;;11.67;100.00;99244.69;5157103;27;20141;-61
2023/05/14 02:08:30;;;;;;;5.70;4.65;;;;;;;11.52;100.00;99216.22;5157140;27;20054;-53
2023/05/14 02:10:56;;;;;;;13.45;4.85;;;;;;;11.83;100.00;99278.28;5157116;27;20408;-53
2023/05/14 02:13:22;;;;;;;8.80;4.55;;;;;;;11.80;100.00;99253.50;5156997;27;20047;-55
2023/05/14 02:15:49;;;;;;;5.32;4.20;;;;;;;11.91;100.00;99287.44;5157040;27;20137;-54
2023/05/14 02:18:15;;;;;;;7.22;4.30;;;;;;;11.80;100.00;99250.75;5157200;27;20054;-62
2023/05/14 02:20:41;;;;;;;7.18;4.38;;;;;;;11.92;100.00;99278.03;5156066;27;20092;-61
2023/05/14 02:23:07;;;;;;;8.18;4.07;;;;;;;11.91;100.00;99299.22;5156029;27;20473;-56
2023/05/14 02:25:33;;;;;;;5.97;4.18;;;;;;;11.87;100.00;99268.16;5156704;27;20374;-56
2023/05/14 02:27:59;;;;;;;9.30;4.22;;;;;;;11.94;100.00;99305.94;5156976;27;20054;-56
2023/05/14 02:30:26;;;;;;;8.02;4.47;;;;;;;11.81;100.00;99293.53;5156867;27;20338;-52
2023/05/14 02:32:51;;;;;;;9.57;4.47;;;;;;;11.95;100.00;99313.00;5156836;27;20042;-54
2023/05/14 02:35:18;;;;;;;5.05;3.65;;;;;;;12.08;100.00;99330.06;5156667;27;20448;-51
2023/05/14 02:37:43;;;;;;;10.40;4.13;;;;;;;12.17;100.00;99345.13;5156752;27;20191;-60
2023/05/14 02:40:10;;;;;;;8.10;4.35;;;;;;;12.20;100.00;99346.34;5156571;27;20350;-61
2023/05/14 02:42:36;;;;;;;7.18;4.55;;;;;;;12.35;100.00;99355.56;5156579;27;20385;-59
2023/05/14 02:45:02;;;;;;;8.43;4.38;;;;;;;12.20;100.00;99300.41;5156457;27;20057;-60
2023/05/14 02:47:28;;;;;;;6.63;4.22;;;;;;;12.79;100.00;99363.19;5156459;27;20043;-60
2023/05/14 02:49:54;;;;;;;5.68;4.20;;;;;;;13.15;100.00;99413.94;5155826;27;20411;-61
2023/05/14 02:52:20;;;;;;;4.45;3.83;;;;;;;13.53;100.00;99464.34;5155430;27;20089;-61
2023/05/14 02:54:46;;;;;;;11.93;3.83;;;;;;;13.94;100.00;99459.66;5139375;27;20054;-61
2023/05/14 02:57:12;;;;;;;6.13;3.97;;;;;;;14.20;100.00;99513.84;5156510;27;20137;-61
2023/05/14 02:59:38;;;;;;;6.88;4.13;;;;;;;14.50;100.00;99540.47;5156510;27;20047;-54
2023/05/14 03:02:04;;;;;;;9.27;4.13;;;;;;;14.59;100.00;99540.94;5156394;27;20434;-51
2023/05/14 03:04:31;;;;;;;9.85;4.15;;;;;;;15.05;100.00;99573.63;5156269;27;20046;-61
2023/05/14 03:06:57;;;;;;;5.05;3.97;;;;;;;15.28;100.00;99593.47;5156369;27;20406;-60
2023/05/14 03:09:22;;;;;;;7.70;3.53;;;;;;;15.76;100.00;99590.59;5156232;27;20078;-62
2023/05/14 03:11:49;;;;;;;7.35;5.07;;;;;;;16.11;100.00;99614.00;5156161;27;20148;-61
2023/05/14 03:14:15;;;;;;;5.53;3.60;;;;;;;16.09;100.00;99610.03;5156344;27;20060;-57
2023/05/14 03:16:41;;;;;;;10.95;3.75;;;;;;;16.62;100.00;99631.47;5155993;27;20054;-55
2023/05/14 03:19:08;;;;;;;6.07;4.18;;;;;;;16.60;99.51;99640.19;5155755;27;20145;-54
2023/05/14 03:21:35;;;;;;;7.07;4.30;;;;;;;17.09;100.00;99633.09;5154775;27;20119;-61
2023/05/14 03:24:01;;;;;;;5.15;3.60;;;;;;;17.31;97.31;99636.59;5156148;27;20164;-59
2023/05/14 03:26:26;;;;;;;6.72;4.10;;;;;;;17.59;96.27;99635.75;5155611;27;20145;-61
2023/05/14 03:28:52;;;;;;;5.32;3.80;;;;;;;17.92;88.57;99663.38;5155766;27;20137;-60
2023/05/14 03:31:18;;;;;;;6.70;3.58;;;;;;;18.01;87.52;99659.00;5156092;27;20058;-60
2023/05/14 03:33:44;;;;;;;6.72;3.72;;;;;;;18.14;84.14;99664.88;5155957;27;20335;-57
2023/05/14 03:36:10;;;;;;;9.77;4.32;;;;;;;18.49;80.47;99665.88;5155858;27;20051;-51
2023/05/14 03:38:37;;;;;;;6.97;3.80;;;;;;;18.88;83.61;99670.38;5155809;27;20097;-55
2023/05/14 03:41:03;;;;;;;7.20;4.63;;;;;;;19.31;84.14;99658.91;5155853;27;20074;-57
2023/05/14 03:43:28;;;;;;;7.13;4.18;;;;;;;19.46;81.31;99650.00;5155642;27;20484;-55
2023/05/14 03:45:54;;;;;;;6.13;4.00;;;;;;;19.67;81.13;99665.69;5155548;27;20051;-57
2023/05/14 03:48:20;;;;;;;6.13;3.90;;;;;;;19.71;89.63;99649.75;5155632;27;20047;-58
2023/05/14 03:50:47;;;;;;;4.95;3.55;;;;;;;20.25;77.48;99671.34;5156557;27;20137;-61
2023/05/14 03:53:12;;;;;;;4.85;3.63;;;;;;;20.31;78.80;99677.25;5155323;27;20355;-56
2023/05/14 03:55:39;;;;;;;6.50;3.63;;;;;;;19.95;79.96;99669.34;5155727;27;20055;-55
2023/05/14 03:58:09;;;;;;;7.50;4.07;;;;;;;20.56;76.80;99674.13;5155545;27;20408;-57
2023/05/14 04:00:35;;;;;;;9.25;4.47;;;;;;;21.17;73.34;99678.75;5155460;27;20435;-63
2023/05/14 04:03:01;;;;;;;9.43;3.60;;;;;;;21.55;67.96;99688.44;5155605;27;20043;-62
2023/05/14 04:05:27;;;;;;;5.97;4.20;;;;;;;21.22;73.81;99676.25;5155217;27;20495;-59
2023/05/14 04:07:53;;;;;;;7.20;3.72;;;;;;;21.30;71.36;99685.31;5155450;27;20082;-57
2023/05/14 04:10:19;;;;;;;6.75;3.75;;;;;;;21.33;72.94;99692.81;5155452;27;20119;-55
2023/05/14 04:12:46;;;;;;;10.60;4.20;;;;;;;20.64;75.32;99681.19;5155367;27;20058;-62
2023/05/14 04:15:12;;;;;;;8.25;4.30;;;;;;;21.48;71.60;99683.00;5155628;27;20061;-58
2023/05/14 04:17:38;;;;;;;8.52;4.57;;;;;;;21.59;69.00;99694.75;5155069;27;20342;-59
2023/05/14 04:20:05;;;;;;;8.82;3.25;;;;;;;21.42;68.60;99700.66;5154074;27;20047;-61
2023/05/14 04:22:31;;;;;;;7.00;4.00;;;;;;;22.27;66.78;99706.59;5155218;27;20188;-53
2023/05/14 04:24:57;;;;;;;7.78;4.70;;;;;;;22.43;65.07;99708.69;5155286;27;20050;-60
2023/05/14 04:27:23;;;;;;;13.35;4.72;;;;;;;22.55;65.67;99705.19;5155076;27;20086;-60
2023/05/14 04:29:49;;;;;;;6.10;4.22;;;;;;;22.49;64.01;99713.31;5155138;27;20046;-58
2023/05/14 04:32:16;;;;;;;12.43;3.83;;;;;;;23.29;61.78;99715.84;5155294;27;20047;-54
2023/05/14 04:34:42;;;;;;;8.68;3.60;;;;;;;22.36;62.49;99722.78;5155173;27;20146;-56
2023/05/14 04:37:08;;;;;;;6.82;3.20;;;;;;;22.32;63.30;99708.88;5155072;27;20058;-59
2023/05/14 04:39:35;;;;;;;9.05;4.50;;;;;;;22.96;62.08;99712.28;5156627;27;20051;-54
2023/05/14 04:42:00;;;;;;;10.25;3.70;;;;;;;23.19;61.04;99712.09;5158572;27;20137;-57
2023/05/14 04:44:26;;;;;;;8.35;3.25;;;;;;;22.94;60.40;99718.28;5158448;27;20160;-55
2023/05/14 04:46:53;;;;;;;13.98;3.55;;;;;;;23.59;60.29;99722.28;5158346;27;20266;-60
2023/05/14 04:49:19;;;;;;;6.40;4.57;;;;;;;23.77;59.29;99719.81;5157244;27;20111;-61
2023/05/14 04:51:45;;;;;;;8.68;4.10;;;;;;;24.14;58.43;99715.56;5158359;27;20042;-52
2023/05/14 04:54:11;;;;;;;14.00;4.30;;;;;;;24.25;59.33;99717.28;5158300;27;20412;-59
2023/05/14 04:56:37;;;;;;;7.97;4.50;;;;;;;24.55;58.57;99714.00;5158508;27;20057;-61
2023/05/14 04:59:03;;;;;;;10.82;4.05;;;;;;;24.60;56.65;99712.66;5158208;27;20138;-59
2023/05/14 05:01:29;;;;;;;8.77;4.15;;;;;;;24.48;58.16;99708.59;5158335;27;20089;-59
2023/05/14 05:03:56;;;;;;;11.80;4.07;;;;;;;24.91;55.12;99720.50;5158303;27;20070;-56
2023/05/14 05:06:22;;;;;;;8.82;3.95;;;;;;;25.40;54.99;99720.91;5158019;27;20066;-58
2023/05/14 05:08:48;;;;;;;9.15;3.75;;;;;;;25.37;55.68;99721.03;5158162;27;20050;-58
2023/05/14 05:11:14;;;;;;;11.20;4.07;;;;;;;25.41;54.67;99724.50;5158012;27;20142;-61
2023/05/14 05:13:40;;;;;;;6.28;3.88;;;;;;;25.83;53.80;99719.47;5157858;27;20042;-60
2023/05/14 05:16:06;;;;;;;7.90;4.00;;;;;;;25.87;54.79;99719.34;5157992;27;20054;-56
2023/05/14 05:18:32;;;;;;;11.23;4.30;;;;;;;25.77;53.38;99718.44;5156554;27;20137;-59
2023/05/14 05:20:59;;;;;;;6.65;3.70;;;;;;;25.63;52.15;99718.94;5157334;27;20145;-60
2023/05/14 05:23:25;;;;;;;6.00;3.70;;;;;;;25.58;53.13;99717.50;5157734;27;20077;-53
2023/05/14 05:25:51;;;;;;;8.25;4.20;;;;;;;24.92;53.35;99720.03;5157717;27;20050;-54
2023/05/14 05:28:17;;;;;;;10.15;4.15;;;;;;;26.03;54.05;99721.94;5157900;27;20141;-57
2023/05/14 05:30:44;;;;;;;9.10;3.95;;;;;;;26.72;52.18;99720.94;5157666;27;20134;-59
2023/05/14 05:33:10;;;;;;;12.38;4.03;;;;;;;26.80;51.42;99721.47;5157665;27;20046;-56
2023/05/14 05:35:37;;;;;;;10.65;3.95;;;;;;;25.91;50.51;99714.34;5157572;27;20062;-58
2023/05/14 05:38:03;;;;;;;11.25;4.10;;;;;;;25.47;52.93;99715.06;5157697;27;20416;-60
2023/05/14 05:40:29;;;;;;;17.15;4.70;;;;;;;26.49;50.71;99719.44;5157516;27;20072;-58
2023/05/14 05:42:55;;;;;;;18.15;4.57;;;;;;;26.92;50.76;99712.13;5157451;27;20389;-60
2023/05/14 05:45:21;;;;;;;10.05;3.67;;;;;;;25.65;50.97;99717.22;5157336;27;20138;-61
2023/05/14 05:47:47;;;;;;;7.82;3.75;;;;;;;26.51;50.21;99716.94;5156106;27;20057;-57
2023/05/14 05:50:13;;;;;;;7.82;3.83;;;;;;;25.57;50.63;99715.94;5156289;27;20187;-56
2023/05/14 05:52:40;;;;;;;10.85;3.97;;;;;;;25.57;51.73;99715.94;5157330;27;20202;-60
2023/05/14 05:55:07;;;;;;;16.17;4.15;;;;;;;26.58;50.54;99710.28;5157402;27;20082;-53
2023/05/14 05:57:33;;;;;;;6.68;3.75;;;;;;;25.60;50.40;99715.03;5157096;27;20093;-55
2023/05/14 05:59:59;;;;;;;7.93;3.63;;;;;;;26.77;49.39;99711.13;5157332;27;20046;-54
2023/05/14 06:02:25;;;;;;;8.57;3.47;;;;;;;27.40;48.85;99707.75;5157296;27;20111;-55
2023/05/14 06:04:51;;;;;;;10.20;3.63;;;;;;;27.44;49.06;99710.41;5157231;27;20050;-53
2023/05/14 06:07:17;;;;;;;9.73;3.60;;;;;;;27.79;46.93;99719.38;5157134;27;20566;-59
2023/05/14 06:09:43;;;;;;;5.75;3.20;;;;;;;27.73;47.24;99714.81;5157143;27;20075;-61
2023/05/14 06:12:10;;;;;;;8.82;3.13;;;;;;;28.10;47.09;99710.72;5156936;27;20402;-59
2023/05/14 06:14:36;;;;;;;5.75;3.00;;;;;;;27.72;46.66;99716.03;5156862;27;20133;-62
2023/05/14 06:17:02;;;;;;;8.35;3.25;;;;;;;28.11;46.28;99715.09;5155768;27;20126;-60
2023/05/14 06:19:28;;;;;;;6.93;3.28;;;;;;;28.01;45.51;99721.22;5156238;27;20336;-56
2023/05/14 06:21:54;;;;;;;9.07;3.03;;;;;;;28.52;45.87;99710.00;5157094;27;20078;-54
2023/05/14 06:24:20;;;;;;;6.53;3.42;;;;;;;28.69;45.84;99709.66;5156919;27;20140;-54
2023/05/14 06:26:47;;;;;;;5.68;3.67;;;;;;;28.68;46.08;99710.91;5156877;27;20082;-60
2023/05/14 06:29:14;;;;;;;8.57;3.13;;;;;;;27.15;46.79;99714.41;5156870;27;20074;-59
2023/05/14 06:31:40;;;;;;;8.40;3.40;;;;;;;28.09;46.33;99709.19;5156839;27;20338;-59
2023/05/14 06:34:05;;;;;;;7.05;3.17;;;;;;;28.75;45.13;99714.16;5156678;27;20078;-58
2023/05/14 06:36:31;;;;;;;9.32;3.33;;;;;;;28.68;45.20;99708.09;5156449;27;20142;-61
2023/05/14 06:38:57;;;;;;;10.23;3.15;;;;;;;28.26;45.29;99711.66;5156549;27;20097;-60
2023/05/14 06:41:23;;;;;;;8.80;3.25;;;;;;;28.98;44.92;99701.34;5156537;27;20046;-58
2023/05/14 06:43:49;;;;;;;9.75;3.15;;;;;;;29.28;43.77;99707.16;5156445;27;20059;-53
2023/05/14 06:46:16;;;;;;;7.10;2.95;;;;;;;29.55;44.83;99706.97;5155587;27;20328;-54
2023/05/14 06:48:42;;;;;;;5.03;2.88;;;;;;;29.73;45.62;99697.59;5155612;27;20315;-55
2023/05/14 06:51:09;;;;;;;8.52;3.35;;;;;;;30.04;44.98;99699.19;5156630;27;20145;-61
2023/05/14 06:53:35;;;;;;;8.75;3.08;;;;;;;28.98;44.55;99692.09;5156628;27;20042;-57
2023/05/14 06:56:01;;;;;;;8.68;3.50;;;;;;;28.84;45.41;99694.38;5156415;27;20051;-59
2023/05/14 06:58:27;;;;;;;5.55;3.08;;;;;;;28.11;45.03;99695.38;5156310;27;20381;-61
2023/05/14 07:00:53;;;;;;;6.20;3.28;;;;;;;28.37;45.39;99714.75;5156069;27;20082;-61
2023/05/14 07:03:20;;;;;;;10.85;2.80;;;;;;;29.19;44.69;99701.56;5155356;27;20043;-59
2023/05/14 07:05:46;;;;;;;12.45;3.08;;;;;;;29.41;43.72;99706.94;5155869;27;20057;-55
2023/05/14 07:08:13;;;;;;;14.63;3.42;;;;;;;29.20;43.69;99700.34;5156134;27;20154;-57
2023/05/14 07:10:39;;;;;;;4.30;2.33;;;;;;;28.90;43.88;99700.16;5155959;27;20047;-60
2023/05/14 07:13:05;;;;;;;6.25;2.72;;;;;;;28.91;43.06;99704.53;5155935;27;20061;-60
2023/05/14 07:15:31;;;;;;;9.95;3.00;;;;;;;28.19;43.28;99703.50;5155486;27;20141;-54
2023/05/14 07:17:56;;;;;;;8.38;2.67;;;;;;;28.52;43.67;99704.38;5154774;27;20439;-55
2023/05/14 07:20:23;;;;;;;4.03;2.20;;;;;;;27.42;43.49;99702.44;5156200;27;20043;-55
2023/05/14 07:22:50;;;;;;;9.52;2.50;;;;;;;28.39;43.13;99706.63;5155889;27;20133;-60
2023/05/14 07:25:16;;;;;;;12.60;2.90;;;;;;;28.67;43.72;99703.72;5155870;27;20061;-58
2023/05/14 07:27:42;;;;;;;6.75;2.40;;;;;;;28.03;44.12;99708.25;5155922;27;20050;-60
2023/05/14 07:30:08;;;;;;;7.03;2.33;;;;;;;28.43;42.83;99698.78;5155720;27;20375;-58
2023/05/14 07:32:34;;;;;;;6.30;2.60;;;;;;;27.63;43.14;99703.53;5155820;27;20046;-60
2023/05/14 07:35:00;;;;;;;10.48;2.40;;;;;;;28.60;42.96;99699.97;5155789;27;20056;-61
2023/05/14 07:37:27;;;;;;;4.82;2.47;;;;;;;29.26;42.85;99709.72;5155845;27;20082;-54
2023/05/14 07:39:53;;;;;;;12.35;2.10;;;;;;;28.77;42.38;99700.38;5155727;27;20135;-52
2023/05/14 07:42:19;;;;;;;8.35;2.38;;;;;;;29.22;42.23;99703.44;5155657;27;20100;-56
2023/05/14 07:44:45;;;;;;;7.25;2.72;;;;;;;27.50;43.01;99700.09;5154956;27;20050;-57
2023/05/14 07:47:11;;;;;;;4.95;2.58;;;;;;;28.97;42.57;99691.34;5154237;27;20388;-57
2023/05/14 07:49:37;;;;;;;5.63;2.47;;;;;;;28.97;42.43;99688.50;5155772;27;20047;-55
2023/05/14 07:52:03;;;;;;;6.00;2.22;;;;;;;29.84;42.57;99684.97;5155679;27;20102;-55
2023/05/14 07:54:30;;;;;;;8.10;2.50;;;;;;;29.13;41.33;99686.59;5155503;27;20412;-57
2023/05/14 07:56:56;;;;;;;4.43;2.60;;;;;;;29.93;42.29;99680.00;5155526;27;20422;-61
2023/05/14 07:59:22;;;;;;;5.22;2.40;;;;;;;30.76;41.50;99683.94;5155463;27;20043;-59
2023/05/14 08:01:47;;;;;;;4.95;2.30;;;;;;;29.69;41.18;99680.06;5155525;27;20142;-57
2023/05/14 08:04:15;;;;;;;15.48;2.90;;;;;;;30.13;42.46;99673.66;5155477;27;20046;-55
2023/05/14 08:06:41;;;;;;;10.48;2.85;;;;;;;28.56;42.09;99678.84;5155268;27;20054;-61
2023/05/14 08:09:07;;;;;;;42.80;23.55;;;;;;;29.84;41.94;99674.44;5155382;27;20485;-56
2023/05/14 08:11:34;;;;;;;9.98;2.60;;;;;;;29.04;42.51;99673.28;5155284;27;20074;-61
2023/05/14 08:14:00;;;;;;;6.00;2.83;;;;;;;29.02;42.83;99672.97;5156966;27;20113;-60
2023/05/14 08:16:26;;;;;;;6.57;2.95;;;;;;;27.85;42.52;99674.44;5157484;27;20101;-54
2023/05/14 08:18:52;;;;;;;8.00;2.35;;;;;;;29.06;43.06;99667.97;5141869;27;20055;-54
2023/05/14 08:21:18;;;;;;;5.40;2.78;;;;;;;29.57;41.92;99671.81;5158994;27;20090;-54
2023/05/14 08:23:44;;;;;;;6.45;2.88;;;;;;;28.92;41.78;99671.44;5158848;27;20396;-59
2023/05/14 08:26:10;;;;;;;8.38;2.60;;;;;;;30.08;41.48;99660.22;5158694;27;20082;-57
2023/05/14 08:28:36;;;;;;;7.95;2.88;;;;;;;29.99;40.58;99663.94;5158794;27;20127;-57
2023/05/14 08:31:02;;;;;;;6.50;2.60;;;;;;;30.01;41.74;99661.38;5158735;27;20137;-56
2023/05/14 08:33:28;;;;;;;9.27;2.67;;;;;;;30.84;40.32;99659.66;5158755;27;20135;-53
2023/05/14 08:35:55;;;;;;;6.38;2.80;;;;;;;30.36;40.82;99657.13;5158662;27;20147;-52
2023/05/14 08:38:21;;;;;;;8.40;3.15;;;;;;;30.93;40.53;99654.66;5158664;27;20115;-58
2023/05/14 08:40:48;;;;;;;5.68;2.55;;;;;;;30.27;41.83;99660.81;5158518;27;20374;-55
2023/05/14 08:43:19;;;;;;;9.27;2.90;;;;;;;30.54;41.05;99656.09;5158078;27;20047;-58
2023/05/14 08:45:48;;;;;;;7.40;2.70;;;;;;;31.00;40.19;99647.81;5157703;27;20054;-56
2023/05/14 08:48:17;;;;;;;7.80;2.53;;;;;;;29.63;41.24;99641.66;5158614;27;20051;-57
2023/05/14 08:50:43;;;;;;;5.38;2.30;;;;;;;30.44;40.06;99646.94;5158422;27;20057;-58
2023/05/14 08:53:09;;;;;;;6.72;2.50;;;;;;;29.93;40.76;99645.31;5158434;27;20043;-54
2023/05/14 08:55:37;;;;;;;8.82;2.38;;;;;;;29.66;40.75;99646.34;5158420;27;20058;-60
2023/05/14 08:58:03;;;;;;;7.55;2.50;;;;;;;28.39;41.93;99641.78;5158335;27;20053;-54
2023/05/14 09:00:29;;;;;;;9.90;2.60;;;;;;;28.58;42.02;99639.66;5158262;27;20051;-55
2023/05/14 09:02:56;;;;;;;7.70;3.05;;;;;;;28.18;41.78;99646.34;5158157;27;20400;-57
2023/05/14 09:05:23;;;;;;;6.95;2.50;;;;;;;28.19;41.95;99642.28;5157941;27;20138;-61
2023/05/14 09:07:49;;;;;;;4.40;2.35;;;;;;;27.86;42.21;99633.75;5157689;27;20138;-58
2023/05/14 09:10:16;;;;;;;7.47;2.67;;;;;;;29.41;42.67;99625.03;5157575;27;20054;-61
2023/05/14 09:12:42;;;;;;;7.13;2.55;;;;;;;28.84;42.13;99628.69;5156809;27;20046;-51
2023/05/14 09:15:08;;;;;;;4.63;2.42;;;;;;;28.85;42.19;99630.25;5141105;27;20063;-55
2023/05/14 09:17:34;;;;;;;6.68;2.53;;;;;;;29.76;42.16;99630.88;5157824;27;20050;-56
2023/05/14 09:20:01;;;;;;;6.88;2.60;;;;;;;29.22;42.11;99624.38;5157841;27;20054;-57
2023/05/14 09:22:30;;;;;;;8.00;2.70;;;;;;;28.91;42.41;99622.69;5157945;27;20340;-60
2023/05/14 09:25:04;;;;;;;9.13;2.65;;;;;;;29.52;42.72;99623.22;5157311;27;20331;-59
2023/05/14 09:27:31;;;;;;;6.10;2.67;;;;;;;28.22;42.53;99629.25;5157751;27;20054;-55
2023/05/14 09:30:04;;;;;;;8.70;2.50;;;;;;;28.80;42.50;99614.00;5157746;27;20133;-55
2023/05/14 09:32:34;;;;;;;;;;;;;;;29.11;41.82;99610.06;5158081;27;20055;-54
2023/05/14 09:35:09;;;;;;;4.82;2.45;;;;;;;28.54;42.74;99611.63;5157155;27;19923;-58
2023/05/14 09:37:36;;;;;;;5.25;2.63;;;;;;;29.65;42.23;99608.03;5157207;27;20412;-52
2023/05/14 09:40:05;;;;;;;8.38;2.50;;;;;;;28.98;41.44;99604.63;5157766;27;20137;-53
2023/05/14 09:42:32;;;;;;;6.68;2.38;;;;;;;30.07;41.30;99601.34;5157671;27;20381;-55
2023/05/14 09:44:58;;;;;;;7.32;3.00;;;;;;;30.64;42.36;99600.94;5157526;27;20137;-52
2023/05/14 09:47:24;;;;;;;3.53;2.28;;;;;;;31.04;41.04;99597.41;5157464;27;20065;-61
2023/05/14 09:49:50;;;;;;;5.57;2.40;;;;;;;31.30;40.87;99602.34;5157373;27;20395;-60
2023/05/14 09:52:18;;;;;;;6.88;2.85;;;;;;;29.44;40.75;99598.66;5157410;27;20078;-61
2023/05/14 09:54:46;;;;;;;7.95;2.33;;;;;;;30.18;40.43;99591.00;5157414;27;20117;-57
2023/05/14 09:57:11;;;;;;;5.18;2.10;;;;;;;28.86;41.91;99586.69;5157214;27;20424;-54
2023/05/14 09:59:37;;;;;;;13.32;2.78;;;;;;;29.37;41.69;99596.97;5157187;27;20065;-53
2023/05/14 10:02:05;;;;;;;10.73;2.53;;;;;;;29.45;42.07;99592.50;5156351;27;20058;-53
2023/05/14 10:04:33;;;;;;;8.65;2.75;;;;;;;29.58;41.98;99580.94;5156199;27;20502;-56
2023/05/14 10:07:00;;;;;;;6.95;2.50;;;;;;;30.08;41.85;99580.28;5157196;27;20051;-60
2023/05/14 10:09:28;;;;;;;6.07;2.22;;;;;;;30.16;41.67;99589.94;5157324;27;20137;-52
2023/05/14 10:12:00;;;;;;;6.45;2.35;;;;;;;30.50;41.86;99584.81;5157120;27;20419;-55
2023/05/14 10:14:32;;;;;;;6.53;2.50;;;;;;;30.94;41.18;99585.44;5157065;27;20050;-57
2023/05/14 10:17:00;;;;;;;7.88;2.75;;;;;;;30.92;40.46;99592.84;5157073;27;20055;-61
2023/05/14 10:19:27;;;;;;;5.78;2.30;;;;;;;30.14;40.03;99584.75;5156984;27;20134;-59
2023/05/14 10:21:56;;;;;;;8.40;2.58;;;;;;;30.55;40.32;99572.78;5156974;27;20137;-53
2023/05/14 10:24:23;;;;;;;6.25;2.65;;;;;;;29.63;40.27;99580.28;5156868;27;20055;-53
2023/05/14 10:26:50;;;;;;;2.80;2.00;;;;;;;30.05;39.53;99581.25;5155780;27;20051;-52
2023/05/14 10:29:16;;;;;;;4.93;2.38;;;;;;;29.56;40.23;99575.00;5155816;27;20051;-60
2023/05/14 10:31:47;;;;;;;5.70;2.60;;;;;;;29.82;39.86;99575.22;5156847;27;20094;-61
2023/05/14 10:34:36;;;;;;;6.30;2.45;;;;;;;28.29;41.27;99562.06;5156857;27;20133;-60
2023/05/14 10:37:03;;;;;;;6.07;2.22;;;;;;;29.43;40.87;99558.31;5155316;27;20115;-59
2023/05/14 10:39:43;;;;;;;5.00;2.25;;;;;;;28.73;40.90;99555.88;5156650;27;20050;-55
2023/05/14 10:42:11;;;;;;;6.03;2.60;;;;;;;28.94;40.82;99550.41;5156495;27;20049;-60
2023/05/14 10:44:46;;;;;;;8.85;2.35;;;;;;;28.63;42.05;99550.78;5156461;27;20434;-59
2023/05/14 10:47:13;;;;;;;7.60;2.75;;;;;;;28.65;42.29;99548.25;5156597;27;20061;-55
2023/05/14 10:49:40;;;;;;;4.88;2.10;;;;;;;29.73;42.33;99545.03;5139479;27;20406;-55
2023/05/14 10:52:07;;;;;;;4.65;2.35;;;;;;;29.35;40.90;99543.00;5156376;27;20435;-55
2023/05/14 10:54:34;;;;;;;3.55;2.40;;;;;;;28.77;41.63;99533.91;5156500;27;20418;-54
2023/05/14 10:57:01;;;;;;;7.22;2.50;;;;;;;28.53;42.15;99536.72;5156460;27;20137;-52
2023/05/14 10:59:27;;;;;;;7.38;2.30;;;;;;;28.28;42.51;99531.50;5156391;27;20051;-56
2023/05/14 11:01:53;;;;;;;3.38;2.38;;;;;;;27.89;43.49;99537.00;5156365;27;20057;-58
2023/05/14 11:04:22;;;;;;;8.82;2.70;;;;;;;27.45;43.36;99528.94;5156269;27;20323;-59
2023/05/14 11:06:51;;;;;;;9.05;2.70;;;;;;;27.41;44.22;99528.34;5156098;27;20054;-60
2023/05/14 11:09:17;;;;;;;5.28;3.10;;;;;;;26.49;43.84;99522.63;5156065;27;20145;-60
2023/05/14 11:11:42;;;;;;;7.90;2.90;;;;;;;26.65;43.96;99519.53;5156139;27;20344;-58
2023/05/14 11:14:09;;;;;;;3.63;2.47;;;;;;;26.15;45.15;99512.38;5154599;27;20312;-56
2023/05/14 11:16:36;;;;;;;7.25;2.40;;;;;;;26.11;45.01;99517.34;5155554;27;20094;-58
2023/05/14 11:19:03;;;;;;;7.47;2.90;;;;;;;26.17;44.88;99510.66;5156058;27;20055;-51
2023/05/14 11:21:31;;;;;;;3.92;2.25;;;;;;;26.10;43.72;99510.19;5155932;27;20046;-55
2023/05/14 11:23:58;;;;;;;6.20;2.60;;;;;;;25.90;44.32;99508.53;5155857;27;20408;-53
2023/05/14 11:26:24;;;;;;;8.82;2.88;;;;;;;26.14;44.30;99508.78;5155757;27;20078;-54